Terminal Aerodrome Forecast
Issued by NWS

Home | Current Version | Previous Version | Text Only | Print | Product List | Glossary On
Versions: 1 2 3 4 5 6 7 8 9 10 11 12 13 14 15 16 17 18 19 20 21 22 23 24 25 26
000
FTUS44 KOUN 132016 AAA
TAFLAW
TAF AMD
KLAW 132016Z 1320/1418 15012KT P6SM SCT250
     FM140400 14011KT 5SM BR OVC025
     FM141000 06012KT P6SM OVC012
     FM141600 36009KT P6SM SCT015=

USA.gov is the U.S. government's official web portal to all federal, state and local government web resources and services.